sensor_id;sensor_type;location;lat;lon;timestamp;P1;durP1;ratioP1;P2;durP2;ratioP2
2772;SDS011;1394;47.044;15.744;2024-03-25T00:01:12;23.60;;;1.40;;
2772;SDS011;1394;47.044;15.744;2024-03-25T00:03:39;24.13;;;1.20;;
2772;SDS011;1394;47.044;15.744;2024-03-25T00:06:06;23.87;;;1.30;;
2772;SDS011;1394;47.044;15.744;2024-03-25T00:08:34;23.50;;;1.40;;
2772;SDS011;1394;47.044;15.744;2024-03-25T00:11:03;23.97;;;1.50;;
2772;SDS011;1394;47.044;15.744;2024-03-25T00:13:29;24.37;;;1.50;;
2772;SDS011;1394;47.044;15.744;2024-03-25T00:15:56;23.70;;;1.30;;
2772;SDS011;1394;47.044;15.744;2024-03-25T00:18:23;23.80;;;1.30;;
2772;SDS011;1394;47.044;15.744;2024-03-25T00:20:53;24.33;;;1.27;;
2772;SDS011;1394;47.044;15.744;2024-03-25T00:23:19;23.43;;;1.10;;
2772;SDS011;1394;47.044;15.744;2024-03-25T00:25:48;23.53;;;1.10;;
2772;SDS011;1394;47.044;15.744;2024-03-25T00:28:14;23.60;;;1.13;;
2772;SDS011;1394;47.044;15.744;2024-03-25T00:30:41;24.67;;;1.50;;
2772;SDS011;1394;47.044;15.744;2024-03-25T00:33:09;23.97;;;1.30;;
2772;SDS011;1394;47.044;15.744;2024-03-25T00:35:37;24.07;;;1.37;;
2772;SDS011;1394;47.044;15.744;2024-03-25T00:38:03;24.00;;;1.33;;
2772;SDS011;1394;47.044;15.744;2024-03-25T00:40:33;23.93;;;1.00;;
2772;SDS011;1394;47.044;15.744;2024-03-25T00:43:01;23.90;;;1.20;;
2772;SDS011;1394;47.044;15.744;2024-03-25T00:45:28;24.67;;;1.70;;
2772;SDS011;1394;47.044;15.744;2024-03-25T00:47:58;23.77;;;1.20;;
2772;SDS011;1394;47.044;15.744;2024-03-25T00:50:24;24.23;;;1.63;;
2772;SDS011;1394;47.044;15.744;2024-03-25T00:52:52;24.17;;;1.40;;
2772;SDS011;1394;47.044;15.744;2024-03-25T00:55:19;23.60;;;1.20;;
2772;SDS011;1394;47.044;15.744;2024-03-25T00:57:48;23.17;;;0.90;;
2772;SDS011;1394;47.044;15.744;2024-03-25T01:00:16;23.53;;;1.10;;
2772;SDS011;1394;47.044;15.744;2024-03-25T01:02:44;23.30;;;0.93;;
2772;SDS011;1394;47.044;15.744;2024-03-25T01:05:10;23.87;;;1.20;;
2772;SDS011;1394;47.044;15.744;2024-03-25T01:07:38;23.90;;;1.40;;
2772;SDS011;1394;47.044;15.744;2024-03-25T01:10:04;23.30;;;1.17;;
2772;SDS011;1394;47.044;15.744;2024-03-25T01:12:32;23.40;;;1.00;;
2772;SDS011;1394;47.044;15.744;2024-03-25T01:14:59;23.10;;;0.90;;
2772;SDS011;1394;47.044;15.744;2024-03-25T01:17:28;23.47;;;1.10;;
2772;SDS011;1394;47.044;15.744;2024-03-25T01:19:56;25.90;;;1.23;;
2772;SDS011;1394;47.044;15.744;2024-03-25T01:22:22;24.00;;;1.30;;
2772;SDS011;1394;47.044;15.744;2024-03-25T01:24:49;23.50;;;1.20;;
2772;SDS011;1394;47.044;15.744;2024-03-25T01:27:16;23.50;;;1.10;;
2772;SDS011;1394;47.044;15.744;2024-03-25T01:29:43;23.20;;;1.20;;
2772;SDS011;1394;47.044;15.744;2024-03-25T01:32:09;23.60;;;1.33;;
2772;SDS011;1394;47.044;15.744;2024-03-25T01:34:38;23.57;;;1.20;;
2772;SDS011;1394;47.044;15.744;2024-03-25T01:37:05;23.57;;;1.20;;
2772;SDS011;1394;47.044;15.744;2024-03-25T01:39:32;23.53;;;1.17;;
2772;SDS011;1394;47.044;15.744;2024-03-25T01:41:59;24.30;;;1.07;;
2772;SDS011;1394;47.044;15.744;2024-03-25T01:44:26;23.47;;;1.40;;
2772;SDS011;1394;47.044;15.744;2024-03-25T01:46:52;24.13;;;1.47;;
2772;SDS011;1394;47.044;15.744;2024-03-25T01:49:20;23.77;;;1.30;;
2772;SDS011;1394;47.044;15.744;2024-03-25T01:51:47;23.77;;;1.30;;
2772;SDS011;1394;47.044;15.744;2024-03-25T01:54:15;23.23;;;1.17;;
2772;SDS011;1394;47.044;15.744;2024-03-25T01:56:42;23.73;;;1.33;;
2772;SDS011;1394;47.044;15.744;2024-03-25T01:59:11;23.30;;;1.10;;
2772;SDS011;1394;47.044;15.744;2024-03-25T02:01:38;23.30;;;1.03;;
2772;SDS011;1394;47.044;15.744;2024-03-25T02:04:06;24.53;;;1.20;;
2772;SDS011;1394;47.044;15.744;2024-03-25T02:06:32;23.40;;;1.00;;
2772;SDS011;1394;47.044;15.744;2024-03-25T02:09:01;23.20;;;0.97;;
2772;SDS011;1394;47.044;15.744;2024-03-25T02:11:28;23.00;;;1.00;;
2772;SDS011;1394;47.044;15.744;2024-03-25T02:13:56;23.20;;;1.00;;
2772;SDS011;1394;47.044;15.744;2024-03-25T02:16:22;23.50;;;1.17;;
2772;SDS011;1394;47.044;15.744;2024-03-25T02:18:51;23.50;;;1.30;;
2772;SDS011;1394;47.044;15.744;2024-03-25T02:21:17;24.27;;;1.60;;
2772;SDS011;1394;47.044;15.744;2024-03-25T02:23:45;24.17;;;1.60;;
2772;SDS011;1394;47.044;15.744;2024-03-25T02:26:14;24.23;;;1.77;;
2772;SDS011;1394;47.044;15.744;2024-03-25T02:28:41;23.90;;;1.80;;
2772;SDS011;1394;47.044;15.744;2024-03-25T02:31:07;23.97;;;1.30;;
2772;SDS011;1394;47.044;15.744;2024-03-25T02:33:35;23.80;;;1.37;;
2772;SDS011;1394;47.044;15.744;2024-03-25T02:36:01;23.40;;;1.40;;
2772;SDS011;1394;47.044;15.744;2024-03-25T02:38:28;23.70;;;1.30;;
2772;SDS011;1394;47.044;15.744;2024-03-25T02:40:55;23.80;;;1.20;;
2772;SDS011;1394;47.044;15.744;2024-03-25T02:43:24;24.63;;;1.63;;
2772;SDS011;1394;47.044;15.744;2024-03-25T02:45:50;23.67;;;1.30;;
2772;SDS011;1394;47.044;15.744;2024-03-25T02:48:17;23.37;;;1.10;;
2772;SDS011;1394;47.044;15.744;2024-03-25T02:50:44;23.27;;;0.97;;
2772;SDS011;1394;47.044;15.744;2024-03-25T02:53:11;23.80;;;1.50;;
2772;SDS011;1394;47.044;15.744;2024-03-25T02:55:37;23.47;;;1.00;;
2772;SDS011;1394;47.044;15.744;2024-03-25T02:58:04;23.47;;;1.20;;
2772;SDS011;1394;47.044;15.744;2024-03-25T03:00:32;23.63;;;1.20;;
2772;SDS011;1394;47.044;15.744;2024-03-25T03:03:02;25.30;;;1.23;;
2772;SDS011;1394;47.044;15.744;2024-03-25T03:05:28;23.30;;;1.20;;
2772;SDS011;1394;47.044;15.744;2024-03-25T03:07:55;24.07;;;1.13;;
2772;SDS011;1394;47.044;15.744;2024-03-25T03:10:22;23.40;;;1.10;;
2772;SDS011;1394;47.044;15.744;2024-03-25T03:12:49;23.30;;;1.00;;
2772;SDS011;1394;47.044;15.744;2024-03-25T03:15:16;23.47;;;1.00;;
2772;SDS011;1394;47.044;15.744;2024-03-25T03:17:44;23.70;;;1.23;;
2772;SDS011;1394;47.044;15.744;2024-03-25T03:20:11;24.33;;;1.70;;
2772;SDS011;1394;47.044;15.744;2024-03-25T03:22:38;23.97;;;1.33;;
2772;SDS011;1394;47.044;15.744;2024-03-25T03:25:05;24.80;;;1.57;;
2772;SDS011;1394;47.044;15.744;2024-03-25T03:27:32;24.17;;;1.47;;
2772;SDS011;1394;47.044;15.744;2024-03-25T03:29:58;23.40;;;1.20;;
2772;SDS011;1394;47.044;15.744;2024-03-25T03:32:26;23.70;;;1.40;;
2772;SDS011;1394;47.044;15.744;2024-03-25T03:34:54;23.30;;;1.30;;
2772;SDS011;1394;47.044;15.744;2024-03-25T03:37:21;23.97;;;1.30;;
2772;SDS011;1394;47.044;15.744;2024-03-25T03:39:47;23.93;;;1.30;;
2772;SDS011;1394;47.044;15.744;2024-03-25T03:42:15;23.47;;;1.20;;
2772;SDS011;1394;47.044;15.744;2024-03-25T03:44:41;23.30;;;1.20;;
2772;SDS011;1394;47.044;15.744;2024-03-25T03:47:08;23.40;;;1.30;;
2772;SDS011;1394;47.044;15.744;2024-03-25T03:49:34;23.50;;;1.50;;
2772;SDS011;1394;47.044;15.744;2024-03-25T03:52:03;23.40;;;1.10;;
2772;SDS011;1394;47.044;15.744;2024-03-25T03:54:31;22.87;;;0.90;;
2772;SDS011;1394;47.044;15.744;2024-03-25T03:56:58;23.40;;;1.00;;
2772;SDS011;1394;47.044;15.744;2024-03-25T03:59:26;23.23;;;1.07;;
2772;SDS011;1394;47.044;15.744;2024-03-25T04:01:53;23.67;;;1.20;;
2772;SDS011;1394;47.044;15.744;2024-03-25T04:04:19;23.40;;;1.10;;
2772;SDS011;1394;47.044;15.744;2024-03-25T04:06:46;23.40;;;1.07;;
2772;SDS011;1394;47.044;15.744;2024-03-25T04:09:14;23.47;;;1.30;;
2772;SDS011;1394;47.044;15.744;2024-03-25T04:11:43;23.57;;;1.20;;
2772;SDS011;1394;47.044;15.744;2024-03-25T04:14:10;23.37;;;1.10;;
2772;SDS011;1394;47.044;15.744;2024-03-25T04:16:37;24.27;;;1.83;;
2772;SDS011;1394;47.044;15.744;2024-03-25T04:19:04;24.30;;;2.17;;
2772;SDS011;1394;47.044;15.744;2024-03-25T04:21:31;23.83;;;1.37;;
2772;SDS011;1394;47.044;15.744;2024-03-25T04:23:57;23.70;;;1.37;;
2772;SDS011;1394;47.044;15.744;2024-03-25T04:26:27;23.83;;;1.47;;
2772;SDS011;1394;47.044;15.744;2024-03-25T04:28:53;24.47;;;2.47;;
2772;SDS011;1394;47.044;15.744;2024-03-25T04:31:21;24.77;;;1.57;;
2772;SDS011;1394;47.044;15.744;2024-03-25T04:33:47;23.53;;;1.37;;
2772;SDS011;1394;47.044;15.744;2024-03-25T04:36:15;23.50;;;1.30;;
2772;SDS011;1394;47.044;15.744;2024-03-25T04:38:42;23.60;;;1.30;;
2772;SDS011;1394;47.044;15.744;2024-03-25T04:41:08;23.80;;;1.40;;
2772;SDS011;1394;47.044;15.744;2024-03-25T04:43:36;23.37;;;1.00;;
2772;SDS011;1394;47.044;15.744;2024-03-25T04:46:02;23.33;;;1.30;;
2772;SDS011;1394;47.044;15.744;2024-03-25T04:48:29;23.60;;;1.10;;
2772;SDS011;1394;47.044;15.744;2024-03-25T04:50:56;23.43;;;1.30;;
2772;SDS011;1394;47.044;15.744;2024-03-25T04:53:23;23.57;;;1.20;;
2772;SDS011;1394;47.044;15.744;2024-03-25T04:55:49;23.40;;;1.30;;
2772;SDS011;1394;47.044;15.744;2024-03-25T04:58:15;23.63;;;1.20;;
2772;SDS011;1394;47.044;15.744;2024-03-25T05:00:43;23.80;;;1.33;;
2772;SDS011;1394;47.044;15.744;2024-03-25T05:03:09;24.07;;;1.83;;
2772;SDS011;1394;47.044;15.744;2024-03-25T05:05:36;23.77;;;1.23;;
2772;SDS011;1394;47.044;15.744;2024-03-25T05:08:02;23.90;;;1.80;;
2772;SDS011;1394;47.044;15.744;2024-03-25T05:10:29;23.30;;;1.20;;
2772;SDS011;1394;47.044;15.744;2024-03-25T05:12:56;24.10;;;1.33;;
2772;SDS011;1394;47.044;15.744;2024-03-25T05:15:22;23.80;;;1.50;;
2772;SDS011;1394;47.044;15.744;2024-03-25T05:17:50;23.47;;;1.30;;
2772;SDS011;1394;47.044;15.744;2024-03-25T05:20:17;23.33;;;1.30;;
2772;SDS011;1394;47.044;15.744;2024-03-25T05:22:43;23.60;;;1.30;;
2772;SDS011;1394;47.044;15.744;2024-03-25T05:25:10;23.23;;;1.10;;
2772;SDS011;1394;47.044;15.744;2024-03-25T05:27:37;23.70;;;1.40;;
2772;SDS011;1394;47.044;15.744;2024-03-25T05:30:03;24.03;;;1.30;;
2772;SDS011;1394;47.044;15.744;2024-03-25T05:32:30;24.50;;;1.40;;
2772;SDS011;1394;47.044;15.744;2024-03-25T05:34:58;23.40;;;1.30;;
2772;SDS011;1394;47.044;15.744;2024-03-25T05:37:25;23.43;;;1.40;;
2772;SDS011;1394;47.044;15.744;2024-03-25T05:39:52;23.63;;;1.20;;
2772;SDS011;1394;47.044;15.744;2024-03-25T05:42:18;23.40;;;1.17;;
2772;SDS011;1394;47.044;15.744;2024-03-25T05:44:45;23.90;;;1.20;;
2772;SDS011;1394;47.044;15.744;2024-03-25T05:47:12;23.37;;;1.43;;
2772;SDS011;1394;47.044;15.744;2024-03-25T05:49:40;23.73;;;1.20;;
2772;SDS011;1394;47.044;15.744;2024-03-25T05:52:08;24.57;;;1.30;;
2772;SDS011;1394;47.044;15.744;2024-03-25T05:54:34;23.50;;;1.60;;
2772;SDS011;1394;47.044;15.744;2024-03-25T05:57:00;23.20;;;1.13;;
2772;SDS011;1394;47.044;15.744;2024-03-25T05:59:28;25.40;;;1.70;;
2772;SDS011;1394;47.044;15.744;2024-03-25T06:01:55;24.03;;;1.40;;
2772;SDS011;1394;47.044;15.744;2024-03-25T06:04:21;23.27;;;1.43;;
2772;SDS011;1394;47.044;15.744;2024-03-25T06:06:47;23.83;;;1.50;;
2772;SDS011;1394;47.044;15.744;2024-03-25T06:09:15;23.57;;;1.57;;
2772;SDS011;1394;47.044;15.744;2024-03-25T06:11:43;24.13;;;1.40;;
2772;SDS011;1394;47.044;15.744;2024-03-25T06:14:09;24.40;;;1.50;;
2772;SDS011;1394;47.044;15.744;2024-03-25T06:16:35;23.33;;;1.13;;
2772;SDS011;1394;47.044;15.744;2024-03-25T06:19:03;23.20;;;1.30;;
2772;SDS011;1394;47.044;15.744;2024-03-25T06:21:30;23.83;;;1.30;;
2772;SDS011;1394;47.044;15.744;2024-03-25T06:23:57;24.37;;;1.83;;
2772;SDS011;1394;47.044;15.744;2024-03-25T06:26:25;23.77;;;1.53;;
2772;SDS011;1394;47.044;15.744;2024-03-25T06:28:54;24.03;;;1.40;;
2772;SDS011;1394;47.044;15.744;2024-03-25T06:31:21;23.53;;;1.20;;
2772;SDS011;1394;47.044;15.744;2024-03-25T06:34:06;23.70;;;1.40;;
2772;SDS011;1394;47.044;15.744;2024-03-25T06:36:42;24.47;;;1.70;;
2772;SDS011;1394;47.044;15.744;2024-03-25T06:39:09;23.80;;;1.50;;
2772;SDS011;1394;47.044;15.744;2024-03-25T06:41:39;24.00;;;1.30;;
2772;SDS011;1394;47.044;15.744;2024-03-25T06:44:05;23.80;;;1.73;;
2772;SDS011;1394;47.044;15.744;2024-03-25T06:46:35;23.70;;;1.33;;
2772;SDS011;1394;47.044;15.744;2024-03-25T06:49:01;23.40;;;1.20;;
2772;SDS011;1394;47.044;15.744;2024-03-25T06:51:27;24.03;;;1.27;;
2772;SDS011;1394;47.044;15.744;2024-03-25T06:53:54;23.60;;;1.20;;
2772;SDS011;1394;47.044;15.744;2024-03-25T06:56:20;25.07;;;3.13;;
2772;SDS011;1394;47.044;15.744;2024-03-25T06:58:49;24.00;;;1.70;;
2772;SDS011;1394;47.044;15.744;2024-03-25T07:01:15;25.63;;;1.57;;
2772;SDS011;1394;47.044;15.744;2024-03-25T07:03:43;24.30;;;1.60;;
2772;SDS011;1394;47.044;15.744;2024-03-25T07:06:09;24.27;;;1.57;;
2772;SDS011;1394;47.044;15.744;2024-03-25T07:08:35;23.90;;;1.50;;
2772;SDS011;1394;47.044;15.744;2024-03-25T07:11:05;26.83;;;2.20;;
2772;SDS011;1394;47.044;15.744;2024-03-25T07:13:31;23.60;;;1.67;;
2772;SDS011;1394;47.044;15.744;2024-03-25T07:16:00;24.47;;;1.80;;
2772;SDS011;1394;47.044;15.744;2024-03-25T07:18:29;23.70;;;1.50;;
2772;SDS011;1394;47.044;15.744;2024-03-25T07:20:56;25.50;;;1.70;;
2772;SDS011;1394;47.044;15.744;2024-03-25T07:23:28;24.23;;;1.20;;
2772;SDS011;1394;47.044;15.744;2024-03-25T07:25:54;24.17;;;1.50;;
2772;SDS011;1394;47.044;15.744;2024-03-25T07:28:21;24.50;;;1.40;;
2772;SDS011;1394;47.044;15.744;2024-03-25T07:30:49;24.23;;;1.60;;
2772;SDS011;1394;47.044;15.744;2024-03-25T07:33:24;23.60;;;1.17;;
2772;SDS011;1394;47.044;15.744;2024-03-25T07:35:51;23.60;;;1.10;;
2772;SDS011;1394;47.044;15.744;2024-03-25T07:38:17;24.37;;;1.60;;
2772;SDS011;1394;47.044;15.744;2024-03-25T07:40:44;24.93;;;1.27;;
2772;SDS011;1394;47.044;15.744;2024-03-25T07:43:10;24.07;;;1.33;;
2772;SDS011;1394;47.044;15.744;2024-03-25T07:45:36;24.20;;;1.70;;
2772;SDS011;1394;47.044;15.744;2024-03-25T07:48:05;23.63;;;1.10;;
2772;SDS011;1394;47.044;15.744;2024-03-25T07:50:33;23.80;;;1.30;;
2772;SDS011;1394;47.044;15.744;2024-03-25T07:52:59;24.43;;;1.20;;
2772;SDS011;1394;47.044;15.744;2024-03-25T07:55:25;24.30;;;1.30;;
2772;SDS011;1394;47.044;15.744;2024-03-25T07:57:52;23.57;;;1.07;;
2772;SDS011;1394;47.044;15.744;2024-03-25T08:00:19;24.03;;;1.30;;
2772;SDS011;1394;47.044;15.744;2024-03-25T08:02:45;24.57;;;1.60;;
2772;SDS011;1394;47.044;15.744;2024-03-25T08:05:11;23.70;;;1.17;;
2772;SDS011;1394;47.044;15.744;2024-03-25T08:07:39;23.90;;;1.60;;
2772;SDS011;1394;47.044;15.744;2024-03-25T08:10:06;25.03;;;1.50;;
2772;SDS011;1394;47.044;15.744;2024-03-25T08:12:34;24.30;;;1.30;;
2772;SDS011;1394;47.044;15.744;2024-03-25T08:15:00;24.33;;;1.70;;
2772;SDS011;1394;47.044;15.744;2024-03-25T08:17:27;24.00;;;1.13;;
2772;SDS011;1394;47.044;15.744;2024-03-25T08:19:54;24.27;;;1.40;;
2772;SDS011;1394;47.044;15.744;2024-03-25T08:22:21;23.90;;;1.27;;
2772;SDS011;1394;47.044;15.744;2024-03-25T08:24:49;24.03;;;1.30;;
2772;SDS011;1394;47.044;15.744;2024-03-25T08:27:15;23.90;;;1.17;;
2772;SDS011;1394;47.044;15.744;2024-03-25T08:29:41;24.90;;;1.07;;
2772;SDS011;1394;47.044;15.744;2024-03-25T08:32:09;24.27;;;1.10;;
2772;SDS011;1394;47.044;15.744;2024-03-25T08:34:36;23.47;;;0.90;;
2772;SDS011;1394;47.044;15.744;2024-03-25T08:37:03;23.70;;;0.93;;
2772;SDS011;1394;47.044;15.744;2024-03-25T08:39:30;23.77;;;1.00;;
2772;SDS011;1394;47.044;15.744;2024-03-25T08:41:59;23.30;;;0.70;;
2772;SDS011;1394;47.044;15.744;2024-03-25T08:44:25;23.70;;;0.80;;
2772;SDS011;1394;47.044;15.744;2024-03-25T08:46:51;23.40;;;0.77;;
2772;SDS011;1394;47.044;15.744;2024-03-25T08:49:18;23.50;;;0.80;;
2772;SDS011;1394;47.044;15.744;2024-03-25T08:51:44;23.60;;;0.80;;
2772;SDS011;1394;47.044;15.744;2024-03-25T08:54:11;23.43;;;0.70;;
2772;SDS011;1394;47.044;15.744;2024-03-25T08:56:37;23.40;;;0.70;;
2772;SDS011;1394;47.044;15.744;2024-03-25T08:59:05;23.40;;;0.70;;
2772;SDS011;1394;47.044;15.744;2024-03-25T09:01:31;23.40;;;0.60;;
2772;SDS011;1394;47.044;15.744;2024-03-25T09:03:57;23.57;;;0.60;;
2772;SDS011;1394;47.044;15.744;2024-03-25T09:06:24;23.60;;;0.60;;
2772;SDS011;1394;47.044;15.744;2024-03-25T09:08:50;23.40;;;0.67;;
2772;SDS011;1394;47.044;15.744;2024-03-25T09:11:35;24.10;;;1.53;;
2772;SDS011;1394;47.044;15.744;2024-03-25T09:14:01;23.40;;;0.67;;
2772;SDS011;1394;47.044;15.744;2024-03-25T09:16:31;23.93;;;0.70;;
2772;SDS011;1394;47.044;15.744;2024-03-25T09:18:58;24.10;;;1.40;;
2772;SDS011;1394;47.044;15.744;2024-03-25T09:21:25;23.40;;;0.60;;
2772;SDS011;1394;47.044;15.744;2024-03-25T09:23:51;23.77;;;1.00;;
2772;SDS011;1394;47.044;15.744;2024-03-25T09:26:19;23.67;;;0.70;;
2772;SDS011;1394;47.044;15.744;2024-03-25T09:28:45;23.40;;;0.60;;
2772;SDS011;1394;47.044;15.744;2024-03-25T09:31:11;23.50;;;0.70;;
2772;SDS011;1394;47.044;15.744;2024-03-25T09:33:40;23.50;;;0.70;;
2772;SDS011;1394;47.044;15.744;2024-03-25T09:36:06;23.40;;;0.60;;
2772;SDS011;1394;47.044;15.744;2024-03-25T09:38:33;23.60;;;0.73;;
2772;SDS011;1394;47.044;15.744;2024-03-25T09:40:59;23.60;;;0.70;;
2772;SDS011;1394;47.044;15.744;2024-03-25T09:43:28;23.50;;;0.70;;
2772;SDS011;1394;47.044;15.744;2024-03-25T09:45:57;23.40;;;0.63;;
2772;SDS011;1394;47.044;15.744;2024-03-25T09:48:23;23.40;;;0.67;;
2772;SDS011;1394;47.044;15.744;2024-03-25T09:50:52;23.70;;;0.73;;
2772;SDS011;1394;47.044;15.744;2024-03-25T09:53:20;23.60;;;0.70;;
2772;SDS011;1394;47.044;15.744;2024-03-25T09:55:46;23.77;;;0.70;;
2772;SDS011;1394;47.044;15.744;2024-03-25T09:58:13;23.50;;;0.60;;
2772;SDS011;1394;47.044;15.744;2024-03-25T10:00:40;23.67;;;0.70;;
2772;SDS011;1394;47.044;15.744;2024-03-25T10:03:07;25.77;;;0.90;;
2772;SDS011;1394;47.044;15.744;2024-03-25T10:05:33;23.40;;;0.60;;
2772;SDS011;1394;47.044;15.744;2024-03-25T10:08:04;23.50;;;0.60;;
2772;SDS011;1394;47.044;15.744;2024-03-25T10:10:33;23.50;;;0.60;;
2772;SDS011;1394;47.044;15.744;2024-03-25T10:13:02;23.40;;;0.60;;
2772;SDS011;1394;47.044;15.744;2024-03-25T10:15:28;23.50;;;0.60;;
2772;SDS011;1394;47.044;15.744;2024-03-25T10:17:56;23.70;;;0.70;;
2772;SDS011;1394;47.044;15.744;2024-03-25T10:20:22;23.50;;;0.80;;
2772;SDS011;1394;47.044;15.744;2024-03-25T10:22:48;23.73;;;0.73;;
2772;SDS011;1394;47.044;15.744;2024-03-25T10:25:23;23.90;;;0.90;;
2772;SDS011;1394;47.044;15.744;2024-03-25T10:27:53;23.90;;;0.90;;
2772;SDS011;1394;47.044;15.744;2024-03-25T10:30:21;24.10;;;1.20;;
2772;SDS011;1394;47.044;15.744;2024-03-25T10:32:57;24.00;;;1.00;;
2772;SDS011;1394;47.044;15.744;2024-03-25T10:35:25;23.70;;;0.60;;
2772;SDS011;1394;47.044;15.744;2024-03-25T10:37:52;23.90;;;0.70;;
2772;SDS011;1394;47.044;15.744;2024-03-25T10:40:19;23.87;;;0.70;;
2772;SDS011;1394;47.044;15.744;2024-03-25T10:42:49;23.60;;;0.60;;
2772;SDS011;1394;47.044;15.744;2024-03-25T10:45:16;23.80;;;0.70;;
2772;SDS011;1394;47.044;15.744;2024-03-25T10:47:43;23.70;;;0.70;;
2772;SDS011;1394;47.044;15.744;2024-03-25T10:50:09;24.00;;;0.70;;
2772;SDS011;1394;47.044;15.744;2024-03-25T10:52:38;23.97;;;0.70;;
2772;SDS011;1394;47.044;15.744;2024-03-25T10:55:08;23.63;;;0.70;;
2772;SDS011;1394;47.044;15.744;2024-03-25T10:57:34;23.50;;;0.70;;
2772;SDS011;1394;47.044;15.744;2024-03-25T11:00:03;23.97;;;0.70;;
2772;SDS011;1394;47.044;15.744;2024-03-25T11:02:29;23.80;;;0.80;;
2772;SDS011;1394;47.044;15.744;2024-03-25T11:04:56;23.80;;;0.60;;
2772;SDS011;1394;47.044;15.744;2024-03-25T11:07:27;23.80;;;0.60;;
2772;SDS011;1394;47.044;15.744;2024-03-25T11:09:54;24.03;;;0.70;;
2772;SDS011;1394;47.044;15.744;2024-03-25T11:12:31;23.97;;;0.80;;
2772;SDS011;1394;47.044;15.744;2024-03-25T11:14:58;25.03;;;0.60;;
2772;SDS011;1394;47.044;15.744;2024-03-25T11:17:30;23.70;;;0.60;;
2772;SDS011;1394;47.044;15.744;2024-03-25T11:20:07;23.60;;;0.70;;
2772;SDS011;1394;47.044;15.744;2024-03-25T11:22:35;24.67;;;0.73;;
2772;SDS011;1394;47.044;15.744;2024-03-25T11:25:07;24.20;;;1.40;;
2772;SDS011;1394;47.044;15.744;2024-03-25T11:27:36;24.20;;;0.73;;
2772;SDS011;1394;47.044;15.744;2024-03-25T11:30:02;24.07;;;0.70;;
2772;SDS011;1394;47.044;15.744;2024-03-25T11:32:40;24.20;;;0.70;;
2772;SDS011;1394;47.044;15.744;2024-03-25T11:35:09;24.00;;;0.80;;
2772;SDS011;1394;47.044;15.744;2024-03-25T11:37:38;23.87;;;0.70;;
2772;SDS011;1394;47.044;15.744;2024-03-25T11:40:05;24.10;;;0.67;;
2772;SDS011;1394;47.044;15.744;2024-03-25T11:42:32;23.90;;;0.70;;
2772;SDS011;1394;47.044;15.744;2024-03-25T11:44:59;23.90;;;0.70;;
2772;SDS011;1394;47.044;15.744;2024-03-25T11:47:27;23.87;;;0.70;;
2772;SDS011;1394;47.044;15.744;2024-03-25T11:49:55;23.90;;;0.70;;
2772;SDS011;1394;47.044;15.744;2024-03-25T11:52:22;24.00;;;0.80;;
2772;SDS011;1394;47.044;15.744;2024-03-25T11:54:53;25.30;;;0.70;;
2772;SDS011;1394;47.044;15.744;2024-03-25T11:57:20;24.10;;;0.67;;
2772;SDS011;1394;47.044;15.744;2024-03-25T11:59:46;23.90;;;0.80;;
2772;SDS011;1394;47.044;15.744;2024-03-25T12:02:13;24.20;;;0.70;;
2772;SDS011;1394;47.044;15.744;2024-03-25T12:04:42;23.87;;;0.73;;
2772;SDS011;1394;47.044;15.744;2024-03-25T12:07:12;23.90;;;0.60;;
2772;SDS011;1394;47.044;15.744;2024-03-25T12:09:38;24.07;;;0.70;;
2772;SDS011;1394;47.044;15.744;2024-03-25T12:12:23;24.20;;;0.73;;
2772;SDS011;1394;47.044;15.744;2024-03-25T12:14:53;24.20;;;0.60;;
2772;SDS011;1394;47.044;15.744;2024-03-25T12:17:20;24.20;;;0.70;;
2772;SDS011;1394;47.044;15.744;2024-03-25T12:19:57;24.30;;;0.60;;
2772;SDS011;1394;47.044;15.744;2024-03-25T12:22:26;24.23;;;0.57;;
2772;SDS011;1394;47.044;15.744;2024-03-25T12:24:53;24.30;;;0.60;;
2772;SDS011;1394;47.044;15.744;2024-03-25T12:27:23;24.87;;;0.90;;
2772;SDS011;1394;47.044;15.744;2024-03-25T12:29:56;24.40;;;0.77;;
2772;SDS011;1394;47.044;15.744;2024-03-25T12:32:30;24.57;;;0.60;;
2772;SDS011;1394;47.044;15.744;2024-03-25T12:34:58;25.10;;;0.70;;
2772;SDS011;1394;47.044;15.744;2024-03-25T12:37:27;24.50;;;0.70;;
2772;SDS011;1394;47.044;15.744;2024-03-25T12:39:55;24.50;;;0.70;;
2772;SDS011;1394;47.044;15.744;2024-03-25T12:42:23;24.80;;;0.80;;
2772;SDS011;1394;47.044;15.744;2024-03-25T12:44:49;24.60;;;0.80;;
2772;SDS011;1394;47.044;15.744;2024-03-25T12:47:16;24.60;;;0.70;;
2772;SDS011;1394;47.044;15.744;2024-03-25T12:49:43;24.87;;;0.70;;
2772;SDS011;1394;47.044;15.744;2024-03-25T12:52:09;24.60;;;0.60;;
2772;SDS011;1394;47.044;15.744;2024-03-25T12:54:37;24.70;;;0.63;;
2772;SDS011;1394;47.044;15.744;2024-03-25T12:57:04;24.87;;;0.80;;
2772;SDS011;1394;47.044;15.744;2024-03-25T12:59:31;24.70;;;0.60;;
2772;SDS011;1394;47.044;15.744;2024-03-25T13:01:58;24.80;;;0.73;;
2772;SDS011;1394;47.044;15.744;2024-03-25T13:04:25;24.60;;;0.70;;
2772;SDS011;1394;47.044;15.744;2024-03-25T13:06:53;24.67;;;0.70;;
2772;SDS011;1394;47.044;15.744;2024-03-25T13:09:19;24.60;;;0.70;;
2772;SDS011;1394;47.044;15.744;2024-03-25T13:11:47;25.20;;;0.90;;
2772;SDS011;1394;47.044;15.744;2024-03-25T13:14:13;25.00;;;0.90;;
2772;SDS011;1394;47.044;15.744;2024-03-25T13:16:40;24.70;;;0.80;;
2772;SDS011;1394;47.044;15.744;2024-03-25T13:19:06;24.77;;;0.73;;
2772;SDS011;1394;47.044;15.744;2024-03-25T13:21:33;24.60;;;0.70;;
2772;SDS011;1394;47.044;15.744;2024-03-25T13:24:00;24.80;;;0.80;;
2772;SDS011;1394;47.044;15.744;2024-03-25T13:26:26;24.70;;;0.80;;
2772;SDS011;1394;47.044;15.744;2024-03-25T13:28:54;24.60;;;0.50;;
2772;SDS011;1394;47.044;15.744;2024-03-25T13:31:20;24.60;;;0.60;;
2772;SDS011;1394;47.044;15.744;2024-03-25T13:33:46;24.70;;;0.70;;
2772;SDS011;1394;47.044;15.744;2024-03-25T13:36:14;25.57;;;0.80;;
2772;SDS011;1394;47.044;15.744;2024-03-25T13:38:40;24.70;;;0.63;;
2772;SDS011;1394;47.044;15.744;2024-03-25T13:41:06;25.50;;;0.90;;
2772;SDS011;1394;47.044;15.744;2024-03-25T13:43:34;24.80;;;0.70;;
2772;SDS011;1394;47.044;15.744;2024-03-25T13:46:02;25.10;;;0.80;;
2772;SDS011;1394;47.044;15.744;2024-03-25T13:48:28;24.73;;;0.60;;
2772;SDS011;1394;47.044;15.744;2024-03-25T13:50:55;25.37;;;0.87;;
2772;SDS011;1394;47.044;15.744;2024-03-25T13:53:21;24.50;;;0.70;;
2772;SDS011;1394;47.044;15.744;2024-03-25T13:55:48;25.07;;;0.77;;
2772;SDS011;1394;47.044;15.744;2024-03-25T13:58:15;24.83;;;0.87;;
2772;SDS011;1394;47.044;15.744;2024-03-25T14:00:41;24.80;;;0.73;;
2772;SDS011;1394;47.044;15.744;2024-03-25T14:03:11;24.80;;;0.70;;
2772;SDS011;1394;47.044;15.744;2024-03-25T14:05:37;24.60;;;0.70;;
2772;SDS011;1394;47.044;15.744;2024-03-25T14:08:03;24.70;;;0.80;;
2772;SDS011;1394;47.044;15.744;2024-03-25T14:10:30;24.90;;;0.80;;
2772;SDS011;1394;47.044;15.744;2024-03-25T14:12:56;24.90;;;0.80;;
2772;SDS011;1394;47.044;15.744;2024-03-25T14:15:23;24.60;;;0.60;;
2772;SDS011;1394;47.044;15.744;2024-03-25T14:17:50;24.70;;;0.70;;
2772;SDS011;1394;47.044;15.744;2024-03-25T14:20:18;24.70;;;0.70;;
2772;SDS011;1394;47.044;15.744;2024-03-25T14:22:44;24.50;;;0.70;;
2772;SDS011;1394;47.044;15.744;2024-03-25T14:25:10;24.80;;;0.80;;
2772;SDS011;1394;47.044;15.744;2024-03-25T14:27:37;24.70;;;0.90;;
2772;SDS011;1394;47.044;15.744;2024-03-25T14:30:03;24.70;;;0.60;;
2772;SDS011;1394;47.044;15.744;2024-03-25T14:32:30;24.70;;;0.90;;
2772;SDS011;1394;47.044;15.744;2024-03-25T14:34:56;24.70;;;0.67;;
2772;SDS011;1394;47.044;15.744;2024-03-25T14:37:25;25.37;;;0.70;;
2772;SDS011;1394;47.044;15.744;2024-03-25T14:39:51;24.67;;;0.80;;
2772;SDS011;1394;47.044;15.744;2024-03-25T14:42:19;24.67;;;0.63;;
2772;SDS011;1394;47.044;15.744;2024-03-25T14:44:45;24.80;;;0.70;;
2772;SDS011;1394;47.044;15.744;2024-03-25T14:47:11;24.77;;;0.70;;
2772;SDS011;1394;47.044;15.744;2024-03-25T14:49:38;24.77;;;0.70;;